createdAt,value
2018-11-12T00:00:50.179Z,12.93
2018-11-12T00:03:19.630Z,10.87
2018-11-12T00:05:49.445Z,8.43
2018-11-12T00:08:19.257Z,8.00
2018-11-12T00:10:49.578Z,7.20
2018-11-12T00:13:38.006Z,11.00
2018-11-12T00:16:08.027Z,11.80
2018-11-12T00:18:38.142Z,10.03
2018-11-12T00:21:07.566Z,9.33
2018-11-12T00:23:56.074Z,14.47
2018-11-12T00:26:26.339Z,10.40
2018-11-12T00:28:56.430Z,11.83
2018-11-12T00:31:26.109Z,10.60
2018-11-12T00:33:56.496Z,11.30
2018-11-12T00:36:26.625Z,18.13
2018-11-12T00:38:56.822Z,15.70
2018-11-12T00:41:26.715Z,14.17
2018-11-12T00:44:15.155Z,16.97
2018-11-12T00:46:44.972Z,20.83
2018-11-12T00:49:34.000Z,16.10
2018-11-12T00:52:03.529Z,15.90
2018-11-12T00:54:33.007Z,10.33
2018-11-12T00:57:02.801Z,14.43
2018-11-12T00:59:32.915Z,13.13
2018-11-12T01:02:02.383Z,16.77
2018-11-12T01:04:50.778Z,11.13
2018-11-12T01:07:39.426Z,13.80
2018-11-12T01:10:11.113Z,12.00
2018-11-12T01:12:40.791Z,12.43
2018-11-12T01:15:12.567Z,12.63
2018-11-12T01:17:42.789Z,10.70
2018-11-12T01:20:13.438Z,10.20
2018-11-12T01:23:01.903Z,15.67
2018-11-12T01:25:32.058Z,9.57
2018-11-12T01:28:01.539Z,7.97
2018-11-12T01:30:31.227Z,13.33
2018-11-12T01:33:00.690Z,10.93
2018-11-12T01:35:49.180Z,10.10
2018-11-12T01:38:18.622Z,9.00
2018-11-12T01:40:48.344Z,10.30
2018-11-12T01:43:18.175Z,10.27
2018-11-12T01:45:47.882Z,10.87
2018-11-12T01:48:17.625Z,12.83
2018-11-12T01:50:47.119Z,7.43
2018-11-12T01:53:16.844Z,7.50
2018-11-12T01:55:46.300Z,8.80
2018-11-12T01:58:15.775Z,8.50
2018-11-12T02:00:45.245Z,9.77
2018-11-12T02:03:14.692Z,21.03
2018-11-12T02:05:44.175Z,11.43
2018-11-12T02:08:13.862Z,10.50
2018-11-12T02:11:02.533Z,9.07
2018-11-12T02:13:32.224Z,9.20
2018-11-12T02:16:02.288Z,14.40
2018-11-12T02:18:31.710Z,11.57
2018-11-12T02:21:01.150Z,14.13
2018-11-12T02:23:49.252Z,14.10
2018-11-12T02:26:18.698Z,18.93
2018-11-12T02:29:07.144Z,15.90
2018-11-12T02:31:36.628Z,16.17
2018-11-12T02:34:24.984Z,14.47
2018-11-12T02:36:55.370Z,18.73
2018-11-12T02:39:44.003Z,15.90
2018-11-12T02:42:13.449Z,18.83
2018-11-12T02:44:44.170Z,15.87
2018-11-12T02:47:32.591Z,18.13
2018-11-12T02:50:02.270Z,17.97
2018-11-12T02:52:31.973Z,21.77
2018-11-12T02:55:01.678Z,20.13
2018-11-12T02:57:31.142Z,18.33
2018-11-12T03:00:00.871Z,20.97
2018-11-12T03:02:30.596Z,24.50
2018-11-12T03:05:00.699Z,17.27
2018-11-12T03:07:30.209Z,26.80
2018-11-12T03:10:00.237Z,18.07
2018-11-12T03:12:48.904Z,22.93
2018-11-12T03:15:19.031Z,25.40
2018-11-12T03:17:49.882Z,22.40
2018-11-12T03:20:20.491Z,21.03
2018-11-12T03:23:08.923Z,28.63
2018-11-12T03:25:38.607Z,24.23
2018-11-12T03:28:08.023Z,18.87
2018-11-12T03:30:38.119Z,22.37
2018-11-12T03:33:07.710Z,27.10
2018-11-12T03:35:56.184Z,28.17
2018-11-12T03:38:26.323Z,28.50
2018-11-12T03:40:56.098Z,26.97
2018-11-12T03:43:44.486Z,21.83
2018-11-12T03:46:14.408Z,19.90
2018-11-12T03:48:44.371Z,19.80
2018-11-12T03:51:14.109Z,19.17
2018-11-12T03:53:43.921Z,21.53
2018-11-12T03:56:13.705Z,25.60
2018-11-12T03:58:43.751Z,23.37
2018-11-12T04:01:13.242Z,20.47
2018-11-12T04:03:42.945Z,21.47
2018-11-12T04:06:12.817Z,28.77
2018-11-12T04:08:42.261Z,23.43
2018-11-12T04:11:11.732Z,22.20
2018-11-12T04:14:00.110Z,21.33
2018-11-12T04:16:29.544Z,25.40
2018-11-12T04:18:58.976Z,25.57
2018-11-12T04:21:47.357Z,16.60
2018-11-12T04:24:17.040Z,16.47
2018-11-12T04:27:05.508Z,12.93
2018-11-12T04:29:35.328Z,23.87
2018-11-12T04:32:23.705Z,17.27
2018-11-12T04:35:12.242Z,17.10
2018-11-12T04:37:41.943Z,15.83
2018-11-12T04:40:14.402Z,13.50
2018-11-12T04:42:44.480Z,15.07
2018-11-12T04:45:15.262Z,17.17
2018-11-12T04:47:45.472Z,21.17
2018-11-12T04:50:16.963Z,28.10
2018-11-12T04:52:46.749Z,25.33
2018-11-12T04:55:34.917Z,27.23
2018-11-12T04:58:05.231Z,36.40
2018-11-12T05:00:34.669Z,32.07
2018-11-12T05:03:23.082Z,30.90
2018-11-12T05:05:52.506Z,29.03
2018-11-12T05:08:22.594Z,29.47
2018-11-12T05:10:52.040Z,28.90
2018-11-12T05:13:40.443Z,29.37
2018-11-12T05:16:09.889Z,52.73
2018-11-12T05:18:39.309Z,25.80
2018-11-12T05:21:08.737Z,22.60
2018-11-12T05:23:39.455Z,21.87
2018-11-12T05:26:27.856Z,21.13
2018-11-12T05:28:57.325Z,20.13
2018-11-12T05:31:26.753Z,20.17
2018-11-12T05:34:15.484Z,21.23
2018-11-12T05:36:44.914Z,19.80
2018-11-12T05:39:14.646Z,18.50
2018-11-12T05:41:44.392Z,27.47
2018-11-12T05:44:13.824Z,18.47
2018-11-12T05:47:01.938Z,26.50
2018-11-12T05:49:31.634Z,18.77
2018-11-12T05:52:01.460Z,16.60
2018-11-12T05:54:31.321Z,23.50
2018-11-12T05:57:01.023Z,19.50
2018-11-12T05:59:30.718Z,20.47
2018-11-12T06:02:00.705Z,26.57
2018-11-12T06:04:30.137Z,14.93
2018-11-12T06:06:59.607Z,15.40
2018-11-12T06:09:29.321Z,17.33
2018-11-12T06:12:17.451Z,17.90
2018-11-12T06:14:47.499Z,15.40
2018-11-12T06:17:16.945Z,22.90
2018-11-12T06:19:46.380Z,18.33
2018-11-12T06:22:16.403Z,18.73
2018-11-12T06:24:45.830Z,20.33
2018-11-12T06:27:34.289Z,16.13
2018-11-12T06:30:04.105Z,20.67
2018-11-12T06:32:33.867Z,19.93
2018-11-12T06:35:22.515Z,17.60
2018-11-12T06:38:11.111Z,15.40
2018-11-12T06:40:40.819Z,18.37
2018-11-12T06:43:28.926Z,26.97
2018-11-12T06:46:17.045Z,18.60
2018-11-12T06:48:47.138Z,26.37
2018-11-12T06:51:16.851Z,26.37
2018-11-12T06:53:46.300Z,20.97
2018-11-12T06:56:15.730Z,24.17
2018-11-12T06:58:45.988Z,20.83
2018-11-12T07:01:15.835Z,22.93
2018-11-12T07:03:45.271Z,26.60
2018-11-12T07:06:15.404Z,20.60
2018-11-12T07:08:45.460Z,26.33
2018-11-12T07:11:34.150Z,15.37
2018-11-12T07:14:03.583Z,18.40
2018-11-12T07:16:33.014Z,18.43
2018-11-12T07:19:02.850Z,17.00
2018-11-12T07:21:32.570Z,21.17
2018-11-12T07:24:02.347Z,18.30
2018-11-12T07:26:32.091Z,25.37
2018-11-12T07:29:02.729Z,21.53
2018-11-12T07:31:32.162Z,21.30
2018-11-12T07:34:01.869Z,19.83
2018-11-12T07:36:31.384Z,22.47
2018-11-12T07:39:01.159Z,26.13
2018-11-12T07:41:31.114Z,23.70
2018-11-12T07:44:00.574Z,23.37
2018-11-12T07:46:30.147Z,29.13
2018-11-12T07:49:00.353Z,21.43
2018-11-12T07:51:49.245Z,31.73
2018-11-12T07:54:19.054Z,21.03
2018-11-12T07:56:48.948Z,21.03
2018-11-12T07:59:18.438Z,24.20
2018-11-12T08:01:47.953Z,24.13
2018-11-12T08:04:17.790Z,29.53
2018-11-12T08:06:47.526Z,28.07
2018-11-12T08:09:17.818Z,38.70
2018-11-12T08:12:06.561Z,27.50
2018-11-12T08:14:54.840Z,23.80
2018-11-12T08:17:43.791Z,24.53
2018-11-12T08:20:32.263Z,29.67
2018-11-12T08:23:02.018Z,25.23
2018-11-12T08:25:31.830Z,27.53
2018-11-12T08:28:20.162Z,41.13
2018-11-12T08:30:49.927Z,41.73
2018-11-12T08:33:19.665Z,23.53
2018-11-12T08:35:49.159Z,20.83
2018-11-12T08:38:19.215Z,22.23
2018-11-12T08:40:48.914Z,22.27
2018-11-12T08:43:18.536Z,21.33
2018-11-12T08:45:48.280Z,20.70
2018-11-12T08:48:18.067Z,33.67
2018-11-12T08:50:47.992Z,16.40
2018-11-12T08:53:17.408Z,20.13
2018-11-12T08:55:47.279Z,26.57
2018-11-12T08:58:17.991Z,27.33
2018-11-12T09:00:46.628Z,24.13
2018-11-12T09:03:35.254Z,36.13
2018-11-12T09:06:04.912Z,38.70
2018-11-12T09:08:35.694Z,40.83
2018-11-12T09:11:05.652Z,31.63
2018-11-12T09:13:35.393Z,23.27
2018-11-12T09:16:24.320Z,24.13
2018-11-12T09:18:54.912Z,22.07
2018-11-12T09:21:24.751Z,27.50
2018-11-12T09:23:54.848Z,30.90
2018-11-12T09:26:24.898Z,25.50
2018-11-12T09:29:14.405Z,25.63
2018-11-12T09:31:44.558Z,29.60
2018-11-12T09:34:14.654Z,29.67
2018-11-12T09:37:03.290Z,28.77
2018-11-12T09:39:52.298Z,25.00
2018-11-12T09:42:22.165Z,31.70
2018-11-12T09:44:52.238Z,26.17
2018-11-12T09:47:21.717Z,26.33
2018-11-12T09:49:51.602Z,24.80
2018-11-12T09:52:21.037Z,28.93
2018-11-12T09:55:09.799Z,34.10
2018-11-12T09:57:40.106Z,24.30
2018-11-12T10:00:15.314Z,28.17
2018-11-12T10:02:47.171Z,31.23
2018-11-12T10:05:36.273Z,27.43
2018-11-12T10:08:29.190Z,28.50
2018-11-12T10:11:01.342Z,25.87
2018-11-12T10:13:50.242Z,29.27
2018-11-12T10:16:19.844Z,29.57
2018-11-12T10:18:46.996Z,44.33
2018-11-12T10:21:35.748Z,30.53
2018-11-12T10:24:24.206Z,26.20
2018-11-12T10:26:53.700Z,30.87
2018-11-12T10:29:23.166Z,26.97
2018-11-12T10:31:53.950Z,17.37
2018-11-12T10:34:24.039Z,17.73
2018-11-12T10:37:12.232Z,22.90
2018-11-12T10:39:41.755Z,28.47
2018-11-12T10:42:11.544Z,31.70
2018-11-12T10:45:00.116Z,53.57
2018-11-12T10:47:48.699Z,32.17
2018-11-12T10:50:18.154Z,26.53
2018-11-12T10:52:48.083Z,33.03
2018-11-12T10:55:19.484Z,31.20
2018-11-12T10:58:07.926Z,36.77
2018-11-12T11:00:56.655Z,42.93
2018-11-12T11:03:45.001Z,42.33
2018-11-12T11:06:14.475Z,22.23
2018-11-12T11:08:44.417Z,14.77
2018-11-12T11:11:14.188Z,28.37
2018-11-12T11:14:02.688Z,16.80
2018-11-12T11:16:51.139Z,23.40
2018-11-12T11:19:21.621Z,18.60
2018-11-12T11:22:10.517Z,22.10
2018-11-12T11:24:42.449Z,16.47
2018-11-12T11:27:12.543Z,18.00
2018-11-12T11:29:42.509Z,29.30
2018-11-12T11:32:11.976Z,14.83
2018-11-12T11:34:41.547Z,16.00
2018-11-12T11:37:11.000Z,18.40
2018-11-12T11:39:41.036Z,20.63
2018-11-12T11:42:29.441Z,12.43
2018-11-12T11:44:58.947Z,12.30
2018-11-12T11:47:48.396Z,9.33
2018-11-12T11:50:37.077Z,25.90
2018-11-12T11:53:06.790Z,26.90
2018-11-12T11:55:36.606Z,20.50
2018-11-12T11:58:06.352Z,20.43
2018-11-12T12:00:54.921Z,26.80
2018-11-12T12:03:24.631Z,16.00
2018-11-12T12:05:57.062Z,10.73
2018-11-12T12:08:26.713Z,18.17
2018-11-12T12:10:56.602Z,18.23
2018-11-12T12:13:26.470Z,9.10
2018-11-12T12:15:56.006Z,9.70
2018-11-12T12:18:26.298Z,12.93
2018-11-12T12:20:56.124Z,12.30
2018-11-12T12:23:25.512Z,5.97
2018-11-12T12:26:13.944Z,8.53
2018-11-12T12:28:44.451Z,12.07
2018-11-12T12:31:14.322Z,12.63
2018-11-12T12:34:02.666Z,8.90
2018-11-12T12:36:32.867Z,7.17
2018-11-12T12:39:02.550Z,10.83
2018-11-12T12:41:32.715Z,5.20
2018-11-12T12:44:21.369Z,5.20
2018-11-12T12:46:52.407Z,7.50
2018-11-12T12:49:39.230Z,6.97
2018-11-12T12:52:27.963Z,16.43
2018-11-12T12:55:16.164Z,8.47
2018-11-12T12:57:46.283Z,24.80
2018-11-12T13:00:34.735Z,11.23
2018-11-12T13:03:04.711Z,18.00
2018-11-12T13:05:36.389Z,24.67
2018-11-12T13:08:25.623Z,15.00
2018-11-12T13:10:56.649Z,23.33
2018-11-12T13:13:26.076Z,21.53
2018-11-12T13:16:14.946Z,23.77
2018-11-12T13:18:44.388Z,20.90
2018-11-12T13:21:14.523Z,18.57
2018-11-12T13:23:43.883Z,17.93
2018-11-12T13:26:13.792Z,29.67
2018-11-12T13:28:43.593Z,22.63
2018-11-12T13:31:13.085Z,17.80
2018-11-12T13:33:42.886Z,22.03
2018-11-12T13:36:12.885Z,20.10
2018-11-12T13:38:42.331Z,17.80
2018-11-12T13:41:30.990Z,22.33
2018-11-12T13:44:19.412Z,17.77
2018-11-12T13:47:07.834Z,17.47
2018-11-12T13:49:37.583Z,26.83
2018-11-12T13:52:07.180Z,20.63
2018-11-12T13:54:36.645Z,19.07
2018-11-12T13:57:06.630Z,17.57
2018-11-12T13:59:36.466Z,20.03
2018-11-12T14:02:06.245Z,17.40
2018-11-12T14:04:36.045Z,23.00
2018-11-12T14:07:24.599Z,18.13
2018-11-12T14:09:54.933Z,37.53
2018-11-12T14:12:44.089Z,19.10
2018-11-12T14:15:33.158Z,18.43
2018-11-12T14:18:02.928Z,25.57
2018-11-12T14:20:32.781Z,23.50
2018-11-12T14:23:02.211Z,15.97
2018-11-12T14:25:31.667Z,24.40
2018-11-12T14:28:01.201Z,27.63
2018-11-12T14:30:31.518Z,31.83
2018-11-12T14:33:20.078Z,22.63
2018-11-12T14:35:49.555Z,30.47
2018-11-12T14:38:19.452Z,38.33
2018-11-12T14:40:48.926Z,28.10
2018-11-12T14:43:18.449Z,35.30
2018-11-12T14:45:48.380Z,34.50
2018-11-12T14:48:17.913Z,38.00
2018-11-12T14:51:06.576Z,48.47
2018-11-12T14:53:36.636Z,36.53
2018-11-12T14:56:06.280Z,24.50
2018-11-12T14:58:55.015Z,26.77
2018-11-12T15:01:44.166Z,23.97
2018-11-12T15:04:32.529Z,23.27
2018-11-12T15:07:21.607Z,21.87
2018-11-12T15:09:51.427Z,31.93
2018-11-12T15:12:21.163Z,31.40
2018-11-12T15:15:09.453Z,31.33
2018-11-12T15:17:38.868Z,46.07
2018-11-12T15:20:28.453Z,26.43
2018-11-12T15:23:17.257Z,26.70
2018-11-12T15:26:05.796Z,21.03
2018-11-12T15:28:54.844Z,26.80
2018-11-12T15:31:25.059Z,44.47
2018-11-12T15:33:54.525Z,19.93
2018-11-12T15:36:24.632Z,17.87
2018-11-12T15:38:54.332Z,17.63
2018-11-12T15:41:42.435Z,19.70
2018-11-12T15:44:11.882Z,21.07
2018-11-12T15:47:00.577Z,12.90
2018-11-12T15:49:49.054Z,11.23
2018-11-12T15:52:18.569Z,15.90
2018-11-12T15:55:07.080Z,16.43
2018-11-12T15:57:36.673Z,22.53
2018-11-12T16:00:07.230Z,24.53
2018-11-12T16:02:56.116Z,30.30
2018-11-12T16:05:25.558Z,32.83
2018-11-12T16:08:14.675Z,23.07
2018-11-12T16:10:44.562Z,39.13
2018-11-12T16:13:14.782Z,28.67
2018-11-12T16:15:44.215Z,20.63
2018-11-12T16:18:14.486Z,17.67
2018-11-12T16:20:43.927Z,31.90
2018-11-12T16:23:13.913Z,13.13
2018-11-12T16:26:02.396Z,11.40
2018-11-12T16:28:31.824Z,25.27
2018-11-12T16:31:02.278Z,18.40
2018-11-12T16:33:31.764Z,12.83
2018-11-12T16:36:01.897Z,14.17
2018-11-12T16:38:31.806Z,22.63
2018-11-12T16:41:20.189Z,14.77
2018-11-12T16:44:09.409Z,19.37
2018-11-12T16:46:39.167Z,15.43
2018-11-12T16:49:09.006Z,16.23
2018-11-12T16:51:38.715Z,14.67
2018-11-12T16:54:08.271Z,20.20
2018-11-12T16:56:38.080Z,10.17
2018-11-12T16:59:26.202Z,15.87
2018-11-12T17:01:56.596Z,9.60
2018-11-12T17:04:45.337Z,18.00
2018-11-12T17:07:33.802Z,19.63
2018-11-12T17:10:23.662Z,33.23
2018-11-12T17:12:53.744Z,19.00
2018-11-12T17:15:23.208Z,14.63
2018-11-12T17:17:52.991Z,20.43
2018-11-12T17:20:22.958Z,11.53
2018-11-12T17:23:11.660Z,12.90
2018-11-12T17:25:41.052Z,14.57
2018-11-12T17:28:29.506Z,11.43
2018-11-12T17:31:18.520Z,12.33
2018-11-12T17:34:07.337Z,8.50
2018-11-12T17:36:37.401Z,12.93
2018-11-12T17:39:26.811Z,13.20
2018-11-12T17:41:56.869Z,11.43
2018-11-12T17:44:45.270Z,23.70
2018-11-12T17:47:14.743Z,11.20
2018-11-12T17:49:44.326Z,12.70
2018-11-12T17:52:32.712Z,12.00
2018-11-12T17:55:02.902Z,17.77
2018-11-12T17:57:32.319Z,13.67
2018-11-12T18:00:40.212Z,16.30
2018-11-12T18:03:28.479Z,17.07
2018-11-12T18:05:57.960Z,15.97
2018-11-12T18:08:27.948Z,18.37
2018-11-12T18:11:16.677Z,16.90
2018-11-12T18:13:53.633Z,12.70
2018-11-12T18:16:42.162Z,14.83
2018-11-12T18:19:11.604Z,12.83
2018-11-12T18:22:00.142Z,18.53
2018-11-12T18:24:29.629Z,9.80
2018-11-12T18:26:59.451Z,13.30
2018-11-12T18:29:29.248Z,13.40
2018-11-12T18:32:17.669Z,12.00
2018-11-12T18:35:06.305Z,12.87
2018-11-12T18:37:54.550Z,10.10
2018-11-12T18:40:42.545Z,12.33
2018-11-12T18:43:12.044Z,11.13
2018-11-12T18:45:41.478Z,12.53
2018-11-12T18:48:11.232Z,19.73
2018-11-12T18:50:59.678Z,13.73
2018-11-12T18:53:48.454Z,22.30
2018-11-12T18:56:17.906Z,11.00
2018-11-12T18:58:47.393Z,16.23
2018-11-12T19:01:35.507Z,34.57
2018-11-12T19:04:23.975Z,28.13
2018-11-12T19:07:12.136Z,25.37
2018-11-12T19:09:42.515Z,25.17
2018-11-12T19:12:30.969Z,33.07
2018-11-12T19:15:00.563Z,28.23
2018-11-12T19:17:50.542Z,32.10
2018-11-12T19:20:38.980Z,25.20
2018-11-12T19:23:08.452Z,32.30
2018-11-12T19:25:37.907Z,35.33
2018-11-12T19:28:07.360Z,46.73
2018-11-12T19:30:37.172Z,28.37
2018-11-12T19:33:06.731Z,33.03
2018-11-12T19:35:37.520Z,35.97
2018-11-12T19:38:07.301Z,28.67
2018-11-12T19:40:36.797Z,29.20
2018-11-12T19:43:24.932Z,36.93
2018-11-12T19:46:13.310Z,26.93
2018-11-12T19:48:43.608Z,27.70
2018-11-12T19:51:32.158Z,27.63
2018-11-12T19:54:20.431Z,27.23
2018-11-12T19:57:08.677Z,23.03
2018-11-12T19:59:56.773Z,26.30
2018-11-12T20:02:26.255Z,23.00
2018-11-12T20:04:55.727Z,26.80
2018-11-12T20:07:25.179Z,27.27
2018-11-12T20:09:54.669Z,26.37
2018-11-12T20:12:24.630Z,24.80
2018-11-12T20:14:54.379Z,29.83
2018-11-12T20:17:24.240Z,28.23
2018-11-12T20:19:54.056Z,30.27
2018-11-12T20:22:23.793Z,29.13
2018-11-12T20:24:53.510Z,32.40
2018-11-12T20:27:23.607Z,32.60
2018-11-12T20:29:53.385Z,30.80
2018-11-12T20:32:22.868Z,26.47
2018-11-12T20:34:52.707Z,31.07
2018-11-12T20:37:41.232Z,29.23
2018-11-12T20:40:12.014Z,25.20
2018-11-12T20:42:42.646Z,25.23
2018-11-12T20:45:13.517Z,26.23
2018-11-12T20:47:44.397Z,25.00
2018-11-12T20:50:14.619Z,26.03
2018-11-12T20:52:44.542Z,29.30
2018-11-12T20:55:15.291Z,28.80
2018-11-12T20:57:45.301Z,25.73
2018-11-12T21:00:34.383Z,25.03
2018-11-12T21:03:04.331Z,29.77
2018-11-12T21:05:33.807Z,36.20
2018-11-12T21:08:22.634Z,34.53
2018-11-12T21:10:52.106Z,33.53
2018-11-12T21:13:22.512Z,35.23
2018-11-12T21:15:52.076Z,17.43
2018-11-12T21:18:21.519Z,25.40
2018-11-12T21:20:51.122Z,18.20
2018-11-12T21:23:20.587Z,23.43
2018-11-12T21:25:50.037Z,20.57
2018-11-12T21:28:19.807Z,40.60
2018-11-12T21:30:49.278Z,67.83
2018-11-12T21:33:18.991Z,51.67
2018-11-12T21:35:49.268Z,28.73
2018-11-12T21:38:18.698Z,30.17
2018-11-12T21:41:07.407Z,25.13
2018-11-12T21:43:56.214Z,22.93
2018-11-12T21:46:25.663Z,30.63
2018-11-12T21:48:56.522Z,27.77
2018-11-12T21:51:44.688Z,33.43
2018-11-12T21:54:14.456Z,24.53
2018-11-12T21:56:44.318Z,27.50
2018-11-12T21:59:14.518Z,25.03
2018-11-12T22:01:44.733Z,22.37
2018-11-12T22:04:15.064Z,30.73
2018-11-12T22:07:04.078Z,26.73
2018-11-12T22:09:34.000Z,24.20
2018-11-12T22:12:03.436Z,31.27
2018-11-12T22:14:33.317Z,22.37
2018-11-12T22:17:03.423Z,20.83
2018-11-12T22:19:33.072Z,26.43
2018-11-12T22:22:02.671Z,23.00
2018-11-12T22:24:32.686Z,25.90
2018-11-12T22:27:02.222Z,23.67
2018-11-12T22:29:33.708Z,26.30
2018-11-12T22:32:03.435Z,24.87
2018-11-12T22:34:33.175Z,27.23
2018-11-12T22:37:02.837Z,24.10
2018-11-12T22:39:32.800Z,32.90
2018-11-12T22:42:02.400Z,28.37
2018-11-12T22:44:32.703Z,22.20
2018-11-12T22:47:04.490Z,21.47
2018-11-12T22:49:34.129Z,20.70
2018-11-12T22:52:03.774Z,21.27
2018-11-12T22:54:35.599Z,25.57
2018-11-12T22:57:07.886Z,27.33
2018-11-12T22:59:37.551Z,20.87
2018-11-12T23:02:09.750Z,19.43
2018-11-12T23:04:58.363Z,31.43
2018-11-12T23:07:27.983Z,21.93
2018-11-12T23:10:16.970Z,20.23
2018-11-12T23:12:46.461Z,27.97
2018-11-12T23:15:34.903Z,24.50
2018-11-12T23:18:04.442Z,34.03
2018-11-12T23:20:33.934Z,26.50
2018-11-12T23:23:22.316Z,19.40
2018-11-12T23:25:52.459Z,21.83
2018-11-12T23:28:40.932Z,18.80
2018-11-12T23:31:29.042Z,30.23
2018-11-12T23:33:58.510Z,18.40
2018-11-12T23:36:27.993Z,23.90
2018-11-12T23:38:57.509Z,30.63
2018-11-12T23:41:26.953Z,20.23
2018-11-12T23:43:57.058Z,22.90
2018-11-12T23:46:26.506Z,25.43
2018-11-12T23:48:56.324Z,21.17
2018-11-12T23:51:44.429Z,23.57
2018-11-12T23:54:33.145Z,29.47
2018-11-12T23:57:03.736Z,23.30
2018-11-12T23:59:33.595Z,27.30
